Alamogordo White Sands Regional Airport
KALM : now visible

Airfield :











YOU CAN JOIN US ON...

 
LOGIN :

Register | Disclaimer

   EN    FR    IT 

 









Legend :    VFR   Marginal VFR   IFR   Intensive IFR   Very Intensive IFR
Visi :
Ceiling :
>= 8 km
>= 3000ft
5 to 8 km
1000 to 3000 ft
1500m to 5 km
500 to 1000 ft
800 to 1500m
200 to 500 ft
< 800m
< 200 ft
Symbols :   Thunderstorms  Fog  Heavy snow  Heavy precipitations  Wind > 20 kt






- Airport Elevation : 4200 ft
- IATA code : ALM


KALM - Alamogordo White Sands Regional

CURRENT METAR :
  • 060035Z AUTO 22009G18KT 10SM CLR 23/M07 A2989 RMK AO2

EXPIRED METARs :
  • 060015Z AUTO 23013G17KT 10SM CLR 23/M09 A2989 RMK AO2
  • 052355Z AUTO 23008KT 10SM CLR 23/M09 A2989 RMK AO2
  • 052335Z AUTO 24008G18KT 10SM CLR 24/M10 A2989 RMK AO2
  • 052315Z AUTO 23014G21KT 10SM CLR 24/M10 A2989 RMK AO2
  • 052255Z AUTO 21014G18KT 10SM CLR 23/M04 A2989 RMK AO2
  • 052215Z AUTO 21008KT 020V030 10SM CLR 23/M03 A2990 RMK AO2
  • 052155Z AUTO 21014G18KT 10SM CLR 23/M03 A2989 RMK AO2

TAF N/A



MET'MAP, your aeronautical weather chart ! - Copyright ORBIFLY December 2007 - Disclaimer

ORBIFLY MET'MAP TEAM :

Programming & Development : Alexandra Zaïnal
Concept & original design : Baudouin d'Aumeries
Assistance for programming : Marc-Olivier Méhu
Technical & hardware support : Manuel Goepfert

Contact : metmap@orbifly.com




SOURCES & CREDITS :

   NOAA       Earth
Advisory